Aérodrome :
LOGIN :

S'inscrire | Disclaimer

   EN    FR    IT 

 










Légende :    VFR   VFR Marginal   IFR   IFR Intensif   IFR Très Intensif
Visi : 
Plafond : 
>= 8 km
>= 3000ft
5 à 8 km
1000 à 3000 ft
1500m à 5 km
500 à 1000 ft
800 à 1500m
200 à 500 ft
< 800m
< 200 ft
Symboles :   Orages  Brouillard  Fortes neiges  Fortes précipitations  Vent > 20 kt
SIGMETs :   Divers  Orages  Givrage  Turbulence  Onde Orograph.  Cendres Volcan.







- Altitude de l'aérodrome : 375 ft
- Code IATA : MST


EHBK - Maastricht Aachen

DERNIER METAR :
  • 101325Z AUTO 28010KT 230V320 9999 BKN021 OVC027 07/03 Q1022 TEMPO 29011G21KT 6000 SHRA FEW018CB

METARs EXPIRÉS :
  • 101255Z AUTO 27008KT 210V320 9999 SCT020 BKN023 OVC030 07/03 Q1022 TEMPO 29011G21KT 6000 SHRA FEW018CB
  • 101225Z AUTO 28009KT 230V320 9999 FEW022 SCT025 BKN030 07/03 Q1022 NOSIG
  • 101155Z AUTO 27007KT 200V340 9999 SCT017 BKN021 OVC037 07/03 Q1022 NOSIG
  • 101125Z AUTO 26006KT 210V310 9999 FEW018 06/04 Q1022 NOSIG
  • 101055Z AUTO 25007KT 210V290 9999 NCD 06/04 Q1022 NOSIG
  • 101025Z AUTO 25007KT 200V300 9999 FEW012 06/03 Q1022 NOSIG

TAF COR TAF EHBK
Valide du 10 à 12h jusqu'au 11 à 18h UTC


101110Z 1012/1118 26010KT 9999 SCT040
BECMG 1012/1015 29010KT
PROB40
TEMPO 1012/1018 30012G22KT 6000 SHRA FEW008 SCT020CB BKN030
BECMG 1115/1118 25004KT
Pas de NOTAMs connus pour ce terrain.



MET'MAP, la Météo Aéronautique d'un coup d'oeil ! - Copyright ORBIFLY Décembre 2007 - Disclaimer

ORBIFLY MET'MAP TEAM :

Programmation & Développement : Alexandra Zaïnal
Conception & Développement : Baudouin d'Aumeries
Co-Programmation & Développement : Marc-Olivier Méhu
Soutien technique & logistique : Manuel Goepfert

Contact : metmap@orbifly.com




SOURCES & CREDITS :

   NOAA